Date,TemperatureHighF,TemperatureAvgF,TemperatureLowF,DewpointHighF,DewpointAvgF,DewpointLowF,HumidityHigh,HumidityAvg,HumidityLow,PressureMaxIn,PressureMinIn,WindSpeedMaxMPH,WindSpeedAvgMPH,GustSpeedMaxMPH,PrecipitationSumIn
2013-3-4,37.9,30.2,7.0,20.5,17.0,-3.1,71,58,43,30.23,30.09,10,3,12,0.02
2013-3-5,30.2,28.6,25.2,26.9,25.1,21.0,88,86,83,30.09,29.92,11,4,15,0.00
2013-3-6,34.2,30.1,26.2,23.0,21.8,19.8,80,71,64,30.31,30.26,14,8,17,0.02
2013-3-7,32.4,23.5,20.3,17.4,16.0,14.2,85,73,49,30.51,30.45,4,0,5,0.00
2013-3-8,32.4,28.4,26.6,23.7,21.1,19.2,77,74,68,30.44,30.35,6,2,8,0.00
2013-3-9,40.8,35.0,27.9,30.1,26.3,19.4,74,70,62,30.36,29.90,7,2,10,0.04
2013-3-10,42.1,38.6,36.7,41.0,37.3,34.7,98,95,93,29.79,29.66,6,3,9,0.40
2013-3-11,35.1,33.9,30.6,33.1,31.7,25.3,94,91,80,29.80,29.59,6,2,8,0.02
2013-3-12,34.7,28.7,24.4,27.2,21.9,16.7,87,76,54,30.06,29.79,8,1,12,0.00
2013-3-13,32.5,23.1,18.3,16.5,8.4,-1.7,75,55,23,30.33,30.05,15,8,19,0.00
2013-3-15,40.5,34.2,30.7,32.4,28.2,23.0,87,78,68,29.97,29.84,7,1,10,0.07
2013-3-16,31.1,27.4,24.4,25.8,21.0,17.3,84,77,70,30.07,29.83,0,0,0,0.02
2013-3-17,34.2,29.0,26.8,17.7,16.3,14.1,66,59,45,30.27,30.08,7,3,10,0.00
2013-3-18,30.4,28.8,27.7,26.1,24.4,22.6,86,84,81,29.82,29.75,6,2,11,0.00
2013-3-19,33.1,25.1,14.7,8.0,4.3,0.1,55,41,31,30.11,29.90,18,8,24,0.02
2013-3-20,23.2,17.1,12.6,-1.2,-5.6,-9.0,46,34,29,30.15,30.08,17,8,21,0.00
2013-3-21,9.5,9.3,9.1,-5.2,-5.4,-5.5,49,49,49,30.12,30.10,8,3,9,0.00
2013-3-23,46.6,36.3,29.3,23.4,18.5,10.3,70,51,26,30.17,30.11,7,2,9,0.02
2013-3-24,36.9,31.7,28.9,25.0,21.5,17.9,77,66,55,30.12,29.79,16,5,22,0.00
2013-3-25,27.0,27.0,27.0,18.8,18.6,18.5,71,70,70,29.87,29.86,11,8,13,0.00
2013-3-26,34.0,32.7,27.0,20.1,19.2,18.8,71,57,54,30.30,29.87,9,5,11,0.00
2013-3-27,35.8,35.8,35.8,20.3,20.3,19.1,53,53,53,30.35,30.30,5,5,8,0.00
2013-3-28,42.6,38.0,31.1,21.7,18.5,14.7,53,45,39,30.38,30.36,6,2,8,0.00
2013-3-30,56.7,51.4,42.1,35.6,29.8,19.6,47,43,38,30.16,29.93,16,8,21,0.00
2013-3-31,33.6,32.9,32.5,19.6,17.4,15.1,56,52,49,29.95,29.93,8,6,9,0.00